Airfield :
LOGIN :

Register | Disclaimer

   EN    FR    IT 

 










Legend :    VFR   Marginal VFR   IFR   Intensive IFR   Very Intensive IFR
Visi :
Ceiling :
>= 8 km
>= 3000ft
5 to 8 km
1000 to 3000 ft
1500m to 5 km
500 to 1000 ft
800 to 1500m
200 to 500 ft
< 800m
< 200 ft
Symbols :   Thunderstorms  Fog  Heavy snow  Heavy precipitations  Wind > 20 kt
SIGMETs :     Misc.  Thunderstorms  Icing  Turbulence  Mountain Waves  Volcanic Ashes






- Airport Elevation : 46 ft
- IATA code : SNN


EINN - Shannon

CURRENT METAR :
  • 061430Z 28016KT 9999 FEW010 FEW018CB 10/07 Q1005 NOSIG

EXPIRED METARs :
  • 061400Z 27018KT 9999 FEW010 FEW018CB 10/07 Q1005 NOSIG
  • 061330Z 27016KT 9999 FEW018CB SCT040 10/07 Q1005 NOSIG
  • 061300Z 26017KT 9999 FEW018CB BKN022 BKN035 11/08 Q1004 NOSIG
  • 061230Z 26015KT 9999 FEW018CB BKN022 BKN030 10/08 Q1004 NOSIG
  • 061200Z 26016G26KT 9999 FEW018CB SCT020 BKN060 10/08 Q1004 NOSIG

TAF TAF EINN
Valid from the 06 at 12:00 until the 07 at 12:00 UTC


061100Z 0612/0712 28020G32KT 9999 SCT018 SCT030
PROB40
TEMPO 0612/0615 -SHRA SCT012 SCT020CB
BECMG 0613/0615 29016G27KT
BECMG 0615/0617 29014KT
BECMG 0619/0621 28009KT
BECMG 0621/0623 25008KT
BECMG 0704/0706 20007KT
BECMG 0707/0709 17010KT
TEMPO 0707/0712 BKN012
BECMG 0710/0712 20010KT



MET'MAP, your aeronautical weather chart ! - Copyright ORBIFLY December 2007 - Disclaimer

ORBIFLY MET'MAP TEAM :

Programming & Development : Alexandra Zaïnal
Concept & original design : Baudouin d'Aumeries
Assistance for programming : Marc-Olivier Méhu
Technical & hardware support : Manuel Goepfert

Contact : metmap@orbifly.com




SOURCES & CREDITS :

   NOAA